Thalassa — FNFP — position and weather

sailwx.info

Track history (hours):
 
Tides and Currents Weather Stations Pressure Air Temp Water Temp Dewpoint Dewpoint Depression Visibility Wind Speed Wind Dir Waves Ship Positions

Oceanographic research ship Thalassa (France & Spain)

Detailed information on ship capabilities available from University of Delaware's Ocean Information Center.

Last reported at 2015-Jan-26 17:31 UTC. Time now 2015-Jan-26 18:30 UTC.
Position N 52°06' E 004°16'.

Length 74 m; beam 15 m.

Type: . MMSI: 227297000.

Date/timePositionNaut miles runAvg speedWind from/ knotsBaromVisibWave heightAir tempDewpointWater temp
2015-Jan-26 17:31N 52°06' E 004°16'0 0.0
2015-Jan-26 16:31N 52°06' E 004°16'0 0.0
2015-Jan-26 15:31N 52°06' E 004°16'0 0.0
2015-Jan-26 14:31N 52°06' E 004°16'0 0.0
2015-Jan-26 13:31N 52°06' E 004°16'0 0.0
2015-Jan-26 12:31N 52°06' E 004°16'0 0.0
2015-Jan-26 11:31N 52°06' E 004°16'0 0.0
2015-Jan-26 10:31N 52°06' E 004°16'0 0.0
2015-Jan-26 09:31N 52°06' E 004°16'0 0.0
2015-Jan-26 08:31N 52°06' E 004°16'0 0.0
2015-Jan-26 07:31N 52°06' E 004°16'0 0.0
2015-Jan-26 06:31N 52°06' E 004°16'0 0.0
2015-Jan-26 05:31N 52°06' E 004°16'0 0.0
2015-Jan-26 04:31N 52°06' E 004°16'0 0.0
2015-Jan-26 03:31N 52°06' E 004°16'0 0.0
2015-Jan-26 02:31N 52°06' E 004°16'0 0.0
2015-Jan-26 01:31N 52°06' E 004°16'0 0.0
2015-Jan-26 00:28N 52°06' E 004°16'0 0.0
2015-Jan-25 23:31N 52°06' E 004°16'0 0.0
2015-Jan-25 22:31N 52°06' E 004°16'0 0.0
2015-Jan-25 21:31N 52°06' E 004°16'0 0.0
2015-Jan-25 20:31N 52°06' E 004°16'0 0.0
2015-Jan-25 19:31N 52°06' E 004°16'0 0.0
2015-Jan-25 18:31N 52°06' E 004°16'0 0.0
2015-Jan-25 17:31N 52°06' E 004°16'3 3.1
2015-Jan-25 16:34N 52°08' E 004°13'1010.4
2015-Jan-25 15:33N 52°03' E 003°58'6 5.7
2015-Jan-25 14:33N 52°02' E 003°49'9 9.3
2015-Jan-25 13:33N 52°09' E 003°60'10 9.7
2015-Jan-25 12:33N 52°16' E 004°10'1 1.3
2015-Jan-25 11:33N 52°15' E 004°11'4 3.5
2015-Jan-25 10:34N 52°17' E 004°07'1211.8
2015-Jan-25 09:33N 52°27' E 003°56'2 1.6
2015-Jan-25 08:33N 52°28' E 003°54'6 6.3
2015-Jan-25 07:33N 52°26' E 004°04'8 7.8
2015-Jan-25 06:33N 52°28' E 004°16'5 4.8
2015-Jan-25 05:34N 52°32' E 004°21'5 4.6
2015-Jan-25 04:33N 52°36' E 004°19'10 9.8
2015-Jan-25 03:33N 52°46' E 004°24'7 7.3
2015-Jan-25 02:33N 52°53' E 004°28'1413.7
2015-Jan-25 01:33N 53°06' E 004°33'1313.1
2015-Jan-25 00:34N 53°17' E 004°44'9 9.1
2015-Jan-24 23:34N 53°24' E 004°55'1 1.0
2015-Jan-24 22:34N 53°23' E 004°55'8 8.1
2015-Jan-24 21:34N 53°31' E 004°55'1010.2
2015-Jan-24 20:33N 53°39' E 005°06'5 5.4
2015-Jan-24 19:34N 53°42' E 005°13'6 6.5
2015-Jan-24 18:33N 53°45' E 005°23'6 6.2
2015-Jan-24 17:34N 53°47' E 005°33'9 9.2
2015-Jan-24 16:32N 53°48' E 005°48'4 3.7
2015-Jan-24 15:33N 53°49' E 005°55'7 6.5
2015-Jan-24 14:33N 53°50' E 006°05'3 3.1
2015-Jan-24 13:30N 53°52' E 006°10'5 5.1
2015-Jan-24 12:33N 53°56' E 006°13'20 6.4
2015-Jan-24 09:27N 54°14' E 005°57'9 9.7
2015-Jan-24 08:33N 54°14' E 005°42'3 2.9
2015-Jan-24 07:22N 54°15' E 005°48'1 1.0
2015-Jan-24 06:33N 54°15' E 005°47'32 6.1
2015-Jan-24 01:16N 54°16' E 006°42'26 3.8
2015-Jan-23 18:25N 53°55' E 007°08'6 6.9
2015-Jan-23 17:33N 53°56' E 007°18'4 3.6
2015-Jan-23 16:32N 53°56' E 007°24'1 0.6
2015-Jan-23 15:24N 53°56' E 007°25'4 4.6
2015-Jan-23 14:28N 53°58' E 007°31'1010.5
2015-Jan-23 13:34N 54°01' E 007°47'2 2.1
2015-Jan-23 12:33N 54°02' E 007°49'9 9.5
2015-Jan-23 11:33N 54°10' E 007°40'7 7.4
2015-Jan-23 10:33N 54°17' E 007°35'3 2.8
2015-Jan-23 09:33N 54°16' E 007°39'1110.7
2015-Jan-23 08:33N 54°17' E 007°57'5 5.2
2015-Jan-23 07:33N 54°19' E 008°06'1 0.5
2015-Jan-23 06:33N 54°19' E 008°05'1 1.0
2015-Jan-23 05:33N 54°18' E 008°04'1 1.1
2015-Jan-23 04:33N 54°19' E 008°06'7 7.2
2015-Jan-23 03:33N 54°23' E 007°56'4 3.8
2015-Jan-23 02:33N 54°25' E 007°50'8 8.3
2015-Jan-23 01:33N 54°31' E 008°00'5 5.0
2015-Jan-23 00:33N 54°35' E 008°05'6 6.0
2015-Jan-22 23:33N 54°32' E 007°57'1010.1
2015-Jan-22 22:34N 54°42' E 007°52'7 5.3
2015-Jan-22 21:19N 54°48' E 007°50'2311.1
2015-Jan-22 19:12N 55°12' E 007°51'11 6.4
2015-Jan-22 17:33N 55°02' E 007°60'8 2.0
2015-Jan-22 13:21N 55°07' E 007°48'1012.0
2015-Jan-22 12:32N 55°13' E 007°34'25 4.6
2015-Jan-22 07:05N 54°52' E 007°12'60 7.7
2015-Jan-21 23:19N 54°21' E 005°43'4 8.9
2015-Jan-21 22:50N 54°19' E 005°36'112.1
2015-Jan-21 22:46N 54°19' E 005°35'312.0
2015-Jan-21 22:32N 54°18' E 005°31'9 9.5
2015-Jan-21 21:33N 54°14' E 005°16'7 6.6
2015-Jan-21 20:33N 54°12' E 005°06'9 9.4
2015-Jan-21 19:32N 54°08' E 004°50'134 4.5
2015-Jan-20 14:11N 52°37' E 002°07'711.2
2015-Jan-20 13:34N 52°34' E 001°56'4 3.8
2015-Jan-20 12:33N 52°31' E 001°55'9 8.8
2015-Jan-20 11:33N 52°23' E 002°02'3 2.7
2015-Jan-20 10:30N 52°20' E 002°04'7 6.7
2015-Jan-20 09:23N 52°13' E 002°00'8 9.9
2015-Jan-20 08:33N 52°05' E 001°56'3 2.5
2015-Jan-20 07:33N 52°03' E 001°55'2 2.2
2015-Jan-20 06:33N 52°05' E 001°56'5 4.7
2015-Jan-20 05:33N 52°04' E 002°04'7 7.0
2015-Jan-20 04:33N 52°10' E 002°10'8 3.8
2015-Jan-20 02:33N 52°18' E 002°07'9 9.2
2015-Jan-20 01:33N 52°20' E 001°53'8 7.9
2015-Jan-20 00:34N 52°12' E 001°52'1212.2
2015-Jan-19 23:34N 52°00' E 001°51'2 2.4
2015-Jan-19 22:33N 51°58' E 001°51'8 7.7
2015-Jan-19 21:34N 51°50' E 001°49'1010.2
2015-Jan-19 20:33N 51°50' E 002°06'2 1.8
2015-Jan-19 19:33N 51°49' E 002°09'8 7.8
2015-Jan-19 18:33N 51°42' E 002°08'0 0.2
2015-Jan-19 17:33N 51°42' E 002°08'0 0.4
2015-Jan-19 16:32N 51°42' E 002°08'4 3.8
2015-Jan-19 15:33N 51°38' E 002°07'1211.9
2015-Jan-19 14:34N 51°36' E 001°48'3 2.9
2015-Jan-19 13:34N 51°33' E 001°45'7 7.2
2015-Jan-19 12:33N 51°28' E 001°54'1110.9
2015-Jan-19 11:32N 51°21' E 002°07'2 1.6
2015-Jan-19 10:34N 51°20' E 002°06'8 7.7
2015-Jan-19 09:33N 51°16' E 001°55'7 7.1
2015-Jan-19 08:34N 51°17' E 001°44'4 4.1
2015-Jan-19 07:34N 51°14' E 001°41'2 1.8
2015-Jan-19 06:34N 51°16' E 001°41'5 4.6
2015-Jan-19 05:33N 51°20' E 001°44'1313.3
2015-Jan-19 04:34N 51°33' E 001°49'4 4.2
2015-Jan-19 03:33N 51°37' E 001°50'8 8.4
2015-Jan-19 02:33N 51°35' E 002°03'8 7.8
2015-Jan-19 01:33N 51°35' E 002°16'5 5.2
2015-Jan-19 00:33N 51°30' E 002°12'10 9.7
2015-Jan-18 23:33N 51°21' E 002°16'4 4.3
2015-Jan-18 22:32N 51°18' E 002°21'6 5.8
2015-Jan-18 21:34N 51°16' E 002°13'1212.2
2015-Jan-18 20:33N 51°09' E 001°57'5 4.6
2015-Jan-18 19:33N 51°06' E 001°51'7 6.6
2015-Jan-18 18:33N 51°01' E 001°44'9 7.6
2015-Jan-18 17:22N 50°54' E 001°35'1 0.8
2015-Jan-18 16:33N 50°54' E 001°35'1 0.5
2015-Jan-18 15:34N 50°54' E 001°35'3 3.4
2015-Jan-18 14:33N 50°56' E 001°39'2511.1
2015-Jan-18 12:19N 50°41' E 001°08'3 3.1
2015-Jan-18 11:30N 50°40' E 001°04'5 5.0
2015-Jan-18 10:32N 50°39' E 000°57'1212.0
2015-Jan-18 09:33N 50°33' E 000°40'1 0.6
2015-Jan-18 08:33N 50°34' E 000°41'3 3.2
2015-Jan-18 07:33N 50°34' E 000°46'10 9.8
2015-Jan-18 06:32N 50°29' E 000°32'15 1.8
2015-Jan-17 22:30N 50°38' E 000°13'3 2.7
2015-Jan-17 21:33N 50°39' E 000°17'1010.3
2015-Jan-17 20:33N 50°44' E 000°32'3 3.3
2015-Jan-17 19:33N 50°45' E 000°36'5 5.4
2015-Jan-17 18:33N 50°48' E 000°43'9 8.1
2015-Jan-17 17:28N 50°53' E 000°55'1 0.6
2015-Jan-17 16:28N 50°52' E 000°56'3 3.2
2015-Jan-17 15:33N 50°52' E 000°52'16 7.0
2015-Jan-17 13:15N 51°02' E 001°10'1 2.1
2015-Jan-17 12:33N 51°03' E 001°13'7 6.5
2015-Jan-17 11:32N 50°57' E 001°15'5 2.7
2015-Jan-17 09:33N 50°53' E 001°22'3 3.3
2015-Jan-17 08:33N 50°50' E 001°20'10 8.8
2015-Jan-17 07:29N 50°45' E 001°33'9 4.1
2015-Jan-17 05:18N 50°47' E 001°19'811.0
2015-Jan-17 04:33N 50°42' E 001°08'2 1.9
2015-Jan-17 03:23N 50°40' E 001°08'910.3
2015-Jan-17 02:33N 50°37' E 000°55'2 2.3
2015-Jan-17 01:33N 50°37' E 000°51'  
Track history (hours):
 
Tides and Currents Weather Stations Pressure Air Temp Water Temp Dewpoint Dewpoint Depression Visibility Wind Speed Wind Dir Waves Ship Positions

Oceanographic research ship Thalassa (France & Spain)

Detailed information on ship capabilities available from University of Delaware's Ocean Information Center.

Last reported at 2015-Jan-26 17:31 UTC. Time now 2015-Jan-26 18:30 UTC.
Position N 52°06' E 004°16'.

Length 74 m; beam 15 m.

Type: . MMSI: 227297000.

Date/timePositionNaut miles runAvg speedWind from/ knotsBaromVisibWave heightAir tempDewpointWater temp
2015-Jan-26 17:31N 52°06' E 004°16'0 0.0
2015-Jan-26 16:31N 52°06' E 004°16'0 0.0
2015-Jan-26 15:31N 52°06' E 004°16'0 0.0
2015-Jan-26 14:31N 52°06' E 004°16'0 0.0
2015-Jan-26 13:31N 52°06' E 004°16'0 0.0
2015-Jan-26 12:31N 52°06' E 004°16'0 0.0
2015-Jan-26 11:31N 52°06' E 004°16'0 0.0
2015-Jan-26 10:31N 52°06' E 004°16'0 0.0
2015-Jan-26 09:31N 52°06' E 004°16'0 0.0
2015-Jan-26 08:31N 52°06' E 004°16'0 0.0
2015-Jan-26 07:31N 52°06' E 004°16'0 0.0
2015-Jan-26 06:31N 52°06' E 004°16'0 0.0
2015-Jan-26 05:31N 52°06' E 004°16'0 0.0
2015-Jan-26 04:31N 52°06' E 004°16'0 0.0
2015-Jan-26 03:31N 52°06' E 004°16'0 0.0
2015-Jan-26 02:31N 52°06' E 004°16'0 0.0
2015-Jan-26 01:31N 52°06' E 004°16'0 0.0
2015-Jan-26 00:28N 52°06' E 004°16'0 0.0
2015-Jan-25 23:31N 52°06' E 004°16'0 0.0
2015-Jan-25 22:31N 52°06' E 004°16'0 0.0
2015-Jan-25 21:31N 52°06' E 004°16'0 0.0
2015-Jan-25 20:31N 52°06' E 004°16'0 0.0
2015-Jan-25 19:31N 52°06' E 004°16'0 0.0
2015-Jan-25 18:31N 52°06' E 004°16'0 0.0
2015-Jan-25 17:31N 52°06' E 004°16'3 3.1
2015-Jan-25 16:34N 52°08' E 004°13'1010.4
2015-Jan-25 15:33N 52°03' E 003°58'6 5.7
2015-Jan-25 14:33N 52°02' E 003°49'9 9.3
2015-Jan-25 13:33N 52°09' E 003°60'10 9.7
2015-Jan-25 12:33N 52°16' E 004°10'1 1.3
2015-Jan-25 11:33N 52°15' E 004°11'4 3.5
2015-Jan-25 10:34N 52°17' E 004°07'1211.8
2015-Jan-25 09:33N 52°27' E 003°56'2 1.6
2015-Jan-25 08:33N 52°28' E 003°54'6 6.3
2015-Jan-25 07:33N 52°26' E 004°04'8 7.8
2015-Jan-25 06:33N 52°28' E 004°16'5 4.8
2015-Jan-25 05:34N 52°32' E 004°21'5 4.6
2015-Jan-25 04:33N 52°36' E 004°19'10 9.8
2015-Jan-25 03:33N 52°46' E 004°24'7 7.3
2015-Jan-25 02:33N 52°53' E 004°28'1413.7
2015-Jan-25 01:33N 53°06' E 004°33'1313.1
2015-Jan-25 00:34N 53°17' E 004°44'9 9.1
2015-Jan-24 23:34N 53°24' E 004°55'1 1.0
2015-Jan-24 22:34N 53°23' E 004°55'8 8.1
2015-Jan-24 21:34N 53°31' E 004°55'1010.2
2015-Jan-24 20:33N 53°39' E 005°06'5 5.4
2015-Jan-24 19:34N 53°42' E 005°13'6 6.5
2015-Jan-24 18:33N 53°45' E 005°23'6 6.2
2015-Jan-24 17:34N 53°47' E 005°33'9 9.2
2015-Jan-24 16:32N 53°48' E 005°48'4 3.7
2015-Jan-24 15:33N 53°49' E 005°55'7 6.5
2015-Jan-24 14:33N 53°50' E 006°05'3 3.1
2015-Jan-24 13:30N 53°52' E 006°10'5 5.1
2015-Jan-24 12:33N 53°56' E 006°13'20 6.4
2015-Jan-24 09:27N 54°14' E 005°57'9 9.7
2015-Jan-24 08:33N 54°14' E 005°42'3 2.9
2015-Jan-24 07:22N 54°15' E 005°48'1 1.0
2015-Jan-24 06:33N 54°15' E 005°47'32 6.1
2015-Jan-24 01:16N 54°16' E 006°42'26 3.8
2015-Jan-23 18:25N 53°55' E 007°08'6 6.9
2015-Jan-23 17:33N 53°56' E 007°18'4 3.6
2015-Jan-23 16:32N 53°56' E 007°24'1 0.6
2015-Jan-23 15:24N 53°56' E 007°25'4 4.6
2015-Jan-23 14:28N 53°58' E 007°31'1010.5
2015-Jan-23 13:34N 54°01' E 007°47'2 2.1
2015-Jan-23 12:33N 54°02' E 007°49'9 9.5
2015-Jan-23 11:33N 54°10' E 007°40'7 7.4
2015-Jan-23 10:33N 54°17' E 007°35'3 2.8
2015-Jan-23 09:33N 54°16' E 007°39'1110.7
2015-Jan-23 08:33N 54°17' E 007°57'5 5.2
2015-Jan-23 07:33N 54°19' E 008°06'1 0.5
2015-Jan-23 06:33N 54°19' E 008°05'1 1.0
2015-Jan-23 05:33N 54°18' E 008°04'1 1.1
2015-Jan-23 04:33N 54°19' E 008°06'7 7.2
2015-Jan-23 03:33N 54°23' E 007°56'4 3.8
2015-Jan-23 02:33N 54°25' E 007°50'8 8.3
2015-Jan-23 01:33N 54°31' E 008°00'5 5.0
2015-Jan-23 00:33N 54°35' E 008°05'6 6.0
2015-Jan-22 23:33N 54°32' E 007°57'1010.1
2015-Jan-22 22:34N 54°42' E 007°52'7 5.3
2015-Jan-22 21:19N 54°48' E 007°50'2311.1
2015-Jan-22 19:12N 55°12' E 007°51'11 6.4
2015-Jan-22 17:33N 55°02' E 007°60'8 2.0
2015-Jan-22 13:21N 55°07' E 007°48'1012.0
2015-Jan-22 12:32N 55°13' E 007°34'25 4.6
2015-Jan-22 07:05N 54°52' E 007°12'60 7.7
2015-Jan-21 23:19N 54°21' E 005°43'4 8.9
2015-Jan-21 22:50N 54°19' E 005°36'112.1
2015-Jan-21 22:46N 54°19' E 005°35'312.0
2015-Jan-21 22:32N 54°18' E 005°31'9 9.5
2015-Jan-21 21:33N 54°14' E 005°16'7 6.6
2015-Jan-21 20:33N 54°12' E 005°06'9 9.4
2015-Jan-21 19:32N 54°08' E 004°50'134 4.5
2015-Jan-20 14:11N 52°37' E 002°07'711.2
2015-Jan-20 13:34N 52°34' E 001°56'4 3.8
2015-Jan-20 12:33N 52°31' E 001°55'9 8.8
2015-Jan-20 11:33N 52°23' E 002°02'3 2.7
2015-Jan-20 10:30N 52°20' E 002°04'7 6.7
2015-Jan-20 09:23N 52°13' E 002°00'8 9.9
2015-Jan-20 08:33N 52°05' E 001°56'3 2.5
2015-Jan-20 07:33N 52°03' E 001°55'2 2.2
2015-Jan-20 06:33N 52°05' E 001°56'5 4.7
2015-Jan-20 05:33N 52°04' E 002°04'7 7.0
2015-Jan-20 04:33N 52°10' E 002°10'8 3.8
2015-Jan-20 02:33N 52°18' E 002°07'9 9.2
2015-Jan-20 01:33N 52°20' E 001°53'8 7.9
2015-Jan-20 00:34N 52°12' E 001°52'1212.2
2015-Jan-19 23:34N 52°00' E 001°51'2 2.4
2015-Jan-19 22:33N 51°58' E 001°51'8 7.7
2015-Jan-19 21:34N 51°50' E 001°49'1010.2
2015-Jan-19 20:33N 51°50' E 002°06'2 1.8
2015-Jan-19 19:33N 51°49' E 002°09'8 7.8
2015-Jan-19 18:33N 51°42' E 002°08'0 0.2
2015-Jan-19 17:33N 51°42' E 002°08'0 0.4
2015-Jan-19 16:32N 51°42' E 002°08'4 3.8
2015-Jan-19 15:33N 51°38' E 002°07'1211.9
2015-Jan-19 14:34N 51°36' E 001°48'3 2.9
2015-Jan-19 13:34N 51°33' E 001°45'7 7.2
2015-Jan-19 12:33N 51°28' E 001°54'1110.9
2015-Jan-19 11:32N 51°21' E 002°07'2 1.6
2015-Jan-19 10:34N 51°20' E 002°06'8 7.7
2015-Jan-19 09:33N 51°16' E 001°55'7 7.1
2015-Jan-19 08:34N 51°17' E 001°44'4 4.1
2015-Jan-19 07:34N 51°14' E 001°41'2 1.8
2015-Jan-19 06:34N 51°16' E 001°41'5 4.6
2015-Jan-19 05:33N 51°20' E 001°44'1313.3
2015-Jan-19 04:34N 51°33' E 001°49'4 4.2
2015-Jan-19 03:33N 51°37' E 001°50'8 8.4
2015-Jan-19 02:33N 51°35' E 002°03'8 7.8
2015-Jan-19 01:33N 51°35' E 002°16'5 5.2
2015-Jan-19 00:33N 51°30' E 002°12'10 9.7
2015-Jan-18 23:33N 51°21' E 002°16'4 4.3
2015-Jan-18 22:32N 51°18' E 002°21'6 5.8
2015-Jan-18 21:34N 51°16' E 002°13'1212.2
2015-Jan-18 20:33N 51°09' E 001°57'5 4.6
2015-Jan-18 19:33N 51°06' E 001°51'7 6.6
2015-Jan-18 18:33N 51°01' E 001°44'9 7.6
2015-Jan-18 17:22N 50°54' E 001°35'1 0.8
2015-Jan-18 16:33N 50°54' E 001°35'1 0.5
2015-Jan-18 15:34N 50°54' E 001°35'3 3.4
2015-Jan-18 14:33N 50°56' E 001°39'2511.1
2015-Jan-18 12:19N 50°41' E 001°08'3 3.1
2015-Jan-18 11:30N 50°40' E 001°04'5 5.0
2015-Jan-18 10:32N 50°39' E 000°57'1212.0
2015-Jan-18 09:33N 50°33' E 000°40'1 0.6
2015-Jan-18 08:33N 50°34' E 000°41'3 3.2
2015-Jan-18 07:33N 50°34' E 000°46'10 9.8
2015-Jan-18 06:32N 50°29' E 000°32'15 1.8
2015-Jan-17 22:30N 50°38' E 000°13'3 2.7
2015-Jan-17 21:33N 50°39' E 000°17'1010.3
2015-Jan-17 20:33N 50°44' E 000°32'3 3.3
2015-Jan-17 19:33N 50°45' E 000°36'5 5.4
2015-Jan-17 18:33N 50°48' E 000°43'9 8.1
2015-Jan-17 17:28N 50°53' E 000°55'1 0.6
2015-Jan-17 16:28N 50°52' E 000°56'3 3.2
2015-Jan-17 15:33N 50°52' E 000°52'16 7.0
2015-Jan-17 13:15N 51°02' E 001°10'1 2.1
2015-Jan-17 12:33N 51°03' E 001°13'7 6.5
2015-Jan-17 11:32N 50°57' E 001°15'5 2.7
2015-Jan-17 09:33N 50°53' E 001°22'3 3.3
2015-Jan-17 08:33N 50°50' E 001°20'10 8.8
2015-Jan-17 07:29N 50°45' E 001°33'9 4.1
2015-Jan-17 05:18N 50°47' E 001°19'811.0
2015-Jan-17 04:33N 50°42' E 001°08'2 1.9
2015-Jan-17 03:23N 50°40' E 001°08'910.3
2015-Jan-17 02:33N 50°37' E 000°55'2 2.3
2015-Jan-17 01:33N 50°37' E 000°51'  

Dump ship's entire track history